sensor_id;sensor_type;location;lat;lon;timestamp;pressure;altitude;pressure_sealevel;temperature;humidity
64628;BME280;68467;50.960;0.314;2024-01-11T00:02:05;101271.52;;;0.64;100.00
64628;BME280;68467;50.960;0.314;2024-01-11T00:04:33;101270.54;;;1.61;100.00
64628;BME280;68467;50.960;0.314;2024-01-11T00:07:00;101275.06;;;0.64;100.00
64628;BME280;68467;50.960;0.314;2024-01-11T00:09:27;101274.89;;;-0.13;100.00
64628;BME280;68467;50.960;0.314;2024-01-11T00:11:54;101279.49;;;-0.53;100.00
64628;BME280;68467;50.960;0.314;2024-01-11T00:14:22;101277.82;;;0.46;100.00
64628;BME280;68467;50.960;0.314;2024-01-11T00:16:49;101282.78;;;0.37;100.00
64628;BME280;68467;50.960;0.314;2024-01-11T00:19:17;101280.75;;;0.49;100.00
64628;BME280;68467;50.960;0.314;2024-01-11T00:21:44;101282.60;;;0.30;100.00
64628;BME280;68467;50.960;0.314;2024-01-11T00:24:11;101286.41;;;0.02;100.00
64628;BME280;68467;50.960;0.314;2024-01-11T00:26:38;101289.32;;;-0.28;100.00
64628;BME280;68467;50.960;0.314;2024-01-11T00:29:05;101292.26;;;-0.32;100.00
64628;BME280;68467;50.960;0.314;2024-01-11T00:31:32;101297.18;;;-0.25;100.00
64628;BME280;68467;50.960;0.314;2024-01-11T00:34:00;101298.67;;;-0.99;100.00
64628;BME280;68467;50.960;0.314;2024-01-11T00:36:27;101298.49;;;0.15;100.00
64628;BME280;68467;50.960;0.314;2024-01-11T00:38:55;101298.92;;;-0.56;100.00
64628;BME280;68467;50.960;0.314;2024-01-11T00:41:21;101299.58;;;-0.11;100.00
64628;BME280;68467;50.960;0.314;2024-01-11T00:43:48;101304.70;;;-0.24;100.00
64628;BME280;68467;50.960;0.314;2024-01-11T00:46:15;101308.08;;;0.14;100.00
64628;BME280;68467;50.960;0.314;2024-01-11T00:48:43;101307.81;;;-0.51;100.00
64628;BME280;68467;50.960;0.314;2024-01-11T00:51:11;101308.25;;;-1.02;100.00
64628;BME280;68467;50.960;0.314;2024-01-11T00:53:38;101312.74;;;-0.32;100.00
64628;BME280;68467;50.960;0.314;2024-01-11T00:56:05;101313.12;;;-0.91;100.00
64628;BME280;68467;50.960;0.314;2024-01-11T00:58:41;101315.82;;;-0.75;100.00
64628;BME280;68467;50.960;0.314;2024-01-11T01:01:10;101309.40;;;-0.37;100.00
64628;BME280;68467;50.960;0.314;2024-01-11T01:03:37;101303.00;;;0.17;100.00
64628;BME280;68467;50.960;0.314;2024-01-11T01:06:05;101305.35;;;-0.77;100.00
64628;BME280;68467;50.960;0.314;2024-01-11T01:08:33;101307.36;;;-0.36;100.00
64628;BME280;68467;50.960;0.314;2024-01-11T01:11:01;101305.86;;;-0.64;100.00
64628;BME280;68467;50.960;0.314;2024-01-11T01:13:28;101302.28;;;0.17;100.00
64628;BME280;68467;50.960;0.314;2024-01-11T01:15:56;101304.68;;;-0.80;100.00
64628;BME280;68467;50.960;0.314;2024-01-11T01:18:24;101316.09;;;-0.53;100.00
64628;BME280;68467;50.960;0.314;2024-01-11T01:20:52;101317.38;;;-0.93;100.00
64628;BME280;68467;50.960;0.314;2024-01-11T01:23:19;101314.43;;;-0.54;100.00
64628;BME280;68467;50.960;0.314;2024-01-11T01:25:47;101313.20;;;-0.37;100.00
64628;BME280;68467;50.960;0.314;2024-01-11T01:28:15;101312.15;;;-0.01;100.00
64628;BME280;68467;50.960;0.314;2024-01-11T01:30:42;101312.41;;;-0.86;100.00
64628;BME280;68467;50.960;0.314;2024-01-11T01:33:10;101321.88;;;0.09;100.00
64628;BME280;68467;50.960;0.314;2024-01-11T01:35:37;101326.34;;;-0.36;100.00
64628;BME280;68467;50.960;0.314;2024-01-11T01:38:04;101329.01;;;-0.41;100.00
64628;BME280;68467;50.960;0.314;2024-01-11T01:40:31;101337.70;;;-0.52;100.00
64628;BME280;68467;50.960;0.314;2024-01-11T01:42:59;101349.30;;;-0.37;100.00
64628;BME280;68467;50.960;0.314;2024-01-11T01:45:26;101357.18;;;-0.60;100.00
64628;BME280;68467;50.960;0.314;2024-01-11T01:47:55;101363.24;;;-0.38;100.00
64628;BME280;68467;50.960;0.314;2024-01-11T01:50:23;101367.47;;;-0.07;100.00
64628;BME280;68467;50.960;0.314;2024-01-11T01:52:51;101371.98;;;-0.31;100.00
64628;BME280;68467;50.960;0.314;2024-01-11T01:55:20;101372.15;;;-0.61;100.00
64628;BME280;68467;50.960;0.314;2024-01-11T01:57:48;101375.90;;;-0.04;100.00
64628;BME280;68467;50.960;0.314;2024-01-11T02:00:17;101379.22;;;-0.51;100.00
64628;BME280;68467;50.960;0.314;2024-01-11T02:02:46;101387.87;;;0.27;100.00
64628;BME280;68467;50.960;0.314;2024-01-11T02:05:16;101393.13;;;0.05;100.00
64628;BME280;68467;50.960;0.314;2024-01-11T02:07:44;101391.09;;;0.32;100.00
64628;BME280;68467;50.960;0.314;2024-01-11T02:10:12;101395.60;;;0.52;100.00
64628;BME280;68467;50.960;0.314;2024-01-11T02:12:40;101403.60;;;0.82;100.00
64628;BME280;68467;50.960;0.314;2024-01-11T02:15:08;101406.16;;;0.52;100.00
64628;BME280;68467;50.960;0.314;2024-01-11T02:17:35;101403.91;;;1.08;100.00
64628;BME280;68467;50.960;0.314;2024-01-11T02:20:02;101398.85;;;0.69;100.00
64628;BME280;68467;50.960;0.314;2024-01-11T02:22:34;101397.20;;;0.08;100.00
64628;BME280;68467;50.960;0.314;2024-01-11T02:25:02;101395.20;;;0.44;100.00
64628;BME280;68467;50.960;0.314;2024-01-11T02:27:29;101399.37;;;0.58;100.00
64628;BME280;68467;50.960;0.314;2024-01-11T02:29:56;101398.27;;;0.65;100.00
64628;BME280;68467;50.960;0.314;2024-01-11T02:32:24;101397.63;;;0.05;100.00
64628;BME280;68467;50.960;0.314;2024-01-11T02:34:51;101398.54;;;0.35;100.00
64628;BME280;68467;50.960;0.314;2024-01-11T02:37:18;101393.41;;;0.35;100.00
64628;BME280;68467;50.960;0.314;2024-01-11T02:39:45;101391.28;;;0.31;100.00
64628;BME280;68467;50.960;0.314;2024-01-11T02:42:12;101384.58;;;0.30;100.00
64628;BME280;68467;50.960;0.314;2024-01-11T02:44:39;101390.78;;;0.46;100.00
64628;BME280;68467;50.960;0.314;2024-01-11T02:47:07;101390.86;;;-0.25;100.00
64628;BME280;68467;50.960;0.314;2024-01-11T02:49:34;101392.80;;;-0.29;100.00
64628;BME280;68467;50.960;0.314;2024-01-11T02:52:02;101398.09;;;-0.12;100.00
64628;BME280;68467;50.960;0.314;2024-01-11T02:54:29;101405.52;;;-0.07;100.00
64628;BME280;68467;50.960;0.314;2024-01-11T02:56:56;101402.22;;;0.62;100.00
64628;BME280;68467;50.960;0.314;2024-01-11T02:59:24;101399.30;;;0.05;100.00
64628;BME280;68467;50.960;0.314;2024-01-11T03:01:50;101398.82;;;0.30;100.00
64628;BME280;68467;50.960;0.314;2024-01-11T03:04:18;101403.49;;;-0.77;100.00
64628;BME280;68467;50.960;0.314;2024-01-11T03:06:45;101410.04;;;0.23;100.00
64628;BME280;68467;50.960;0.314;2024-01-11T03:09:11;101414.35;;;0.11;100.00
64628;BME280;68467;50.960;0.314;2024-01-11T03:11:39;101411.00;;;-0.07;100.00
64628;BME280;68467;50.960;0.314;2024-01-11T03:14:07;101416.77;;;-1.07;100.00
64628;BME280;68467;50.960;0.314;2024-01-11T03:16:34;101422.79;;;0.22;100.00
64628;BME280;68467;50.960;0.314;2024-01-11T03:19:01;101431.21;;;0.05;100.00
64628;BME280;68467;50.960;0.314;2024-01-11T03:21:28;101436.48;;;-0.91;100.00
64628;BME280;68467;50.960;0.314;2024-01-11T03:23:55;101433.49;;;-0.41;100.00
64628;BME280;68467;50.960;0.314;2024-01-11T03:26:22;101433.95;;;0.20;100.00
64628;BME280;68467;50.960;0.314;2024-01-11T03:28:49;101434.87;;;0.12;100.00
64628;BME280;68467;50.960;0.314;2024-01-11T03:31:17;101435.09;;;-0.67;100.00
64628;BME280;68467;50.960;0.314;2024-01-11T03:33:44;101436.60;;;-0.36;100.00
64628;BME280;68467;50.960;0.314;2024-01-11T03:36:12;101432.45;;;-0.19;100.00
64628;BME280;68467;50.960;0.314;2024-01-11T03:38:39;101440.39;;;0.35;100.00
64628;BME280;68467;50.960;0.314;2024-01-11T03:41:08;101448.46;;;0.68;100.00
64628;BME280;68467;50.960;0.314;2024-01-11T03:43:35;101448.51;;;0.46;100.00
64628;BME280;68467;50.960;0.314;2024-01-11T03:46:02;101446.97;;;-0.83;100.00
64628;BME280;68467;50.960;0.314;2024-01-11T03:48:30;101445.95;;;0.07;100.00
64628;BME280;68467;50.960;0.314;2024-01-11T03:50:57;101448.19;;;0.29;100.00
64628;BME280;68467;50.960;0.314;2024-01-11T03:53:24;101447.08;;;0.24;100.00
64628;BME280;68467;50.960;0.314;2024-01-11T03:55:51;101447.10;;;0.61;100.00
64628;BME280;68467;50.960;0.314;2024-01-11T03:58:18;101448.42;;;0.67;100.00
64628;BME280;68467;50.960;0.314;2024-01-11T04:00:46;101448.78;;;0.83;100.00
64628;BME280;68467;50.960;0.314;2024-01-11T04:03:13;101444.30;;;0.69;100.00
64628;BME280;68467;50.960;0.314;2024-01-11T04:05:40;101448.25;;;0.45;100.00
64628;BME280;68467;50.960;0.314;2024-01-11T04:08:07;101451.43;;;0.60;100.00
64628;BME280;68467;50.960;0.314;2024-01-11T04:10:34;101451.99;;;0.87;100.00
64628;BME280;68467;50.960;0.314;2024-01-11T04:13:01;101458.26;;;0.66;100.00
64628;BME280;68467;50.960;0.314;2024-01-11T04:15:29;101460.64;;;0.96;100.00
64628;BME280;68467;50.960;0.314;2024-01-11T04:17:55;101459.82;;;0.88;100.00
64628;BME280;68467;50.960;0.314;2024-01-11T04:20:22;101455.14;;;1.07;100.00
64628;BME280;68467;50.960;0.314;2024-01-11T04:22:49;101453.12;;;0.27;100.00
64628;BME280;68467;50.960;0.314;2024-01-11T04:25:16;101458.39;;;1.01;100.00
64628;BME280;68467;50.960;0.314;2024-01-11T04:27:44;101455.73;;;1.63;100.00
64628;BME280;68467;50.960;0.314;2024-01-11T04:30:11;101459.42;;;0.87;100.00
64628;BME280;68467;50.960;0.314;2024-01-11T04:32:38;101458.04;;;1.54;100.00
64628;BME280;68467;50.960;0.314;2024-01-11T04:35:06;101459.20;;;1.22;100.00
64628;BME280;68467;50.960;0.314;2024-01-11T04:37:34;101459.73;;;0.68;100.00
64628;BME280;68467;50.960;0.314;2024-01-11T04:40:02;101462.36;;;0.48;100.00
64628;BME280;68467;50.960;0.314;2024-01-11T04:42:29;101463.97;;;0.84;100.00
64628;BME280;68467;50.960;0.314;2024-01-11T04:44:56;101461.96;;;-0.06;100.00
64628;BME280;68467;50.960;0.314;2024-01-11T04:47:24;101462.97;;;1.04;100.00
64628;BME280;68467;50.960;0.314;2024-01-11T04:49:51;101464.34;;;0.61;100.00
64628;BME280;68467;50.960;0.314;2024-01-11T04:52:18;101471.15;;;0.62;100.00
64628;BME280;68467;50.960;0.314;2024-01-11T04:54:46;101470.20;;;0.65;100.00
64628;BME280;68467;50.960;0.314;2024-01-11T04:57:13;101462.95;;;-0.38;100.00
64628;BME280;68467;50.960;0.314;2024-01-11T04:59:40;101458.42;;;1.49;100.00
64628;BME280;68467;50.960;0.314;2024-01-11T05:02:07;101453.93;;;1.05;100.00
64628;BME280;68467;50.960;0.314;2024-01-11T05:04:34;101458.90;;;0.79;100.00
64628;BME280;68467;50.960;0.314;2024-01-11T05:07:01;101463.69;;;0.28;100.00
64628;BME280;68467;50.960;0.314;2024-01-11T05:09:29;101467.27;;;0.14;100.00
64628;BME280;68467;50.960;0.314;2024-01-11T05:11:56;101468.37;;;0.09;100.00
64628;BME280;68467;50.960;0.314;2024-01-11T05:14:23;101475.36;;;0.67;100.00
64628;BME280;68467;50.960;0.314;2024-01-11T05:16:50;101471.06;;;0.58;100.00
64628;BME280;68467;50.960;0.314;2024-01-11T05:19:18;101471.04;;;-0.09;100.00
64628;BME280;68467;50.960;0.314;2024-01-11T05:21:44;101475.53;;;0.26;100.00
64628;BME280;68467;50.960;0.314;2024-01-11T05:24:11;101475.41;;;1.05;100.00
64628;BME280;68467;50.960;0.314;2024-01-11T05:26:38;101478.95;;;0.62;100.00
64628;BME280;68467;50.960;0.314;2024-01-11T05:29:05;101479.80;;;0.71;100.00
64628;BME280;68467;50.960;0.314;2024-01-11T05:31:32;101478.03;;;0.36;100.00
64628;BME280;68467;50.960;0.314;2024-01-11T05:33:59;101484.14;;;0.35;100.00
64628;BME280;68467;50.960;0.314;2024-01-11T05:36:26;101486.43;;;0.09;100.00
64628;BME280;68467;50.960;0.314;2024-01-11T05:38:54;101484.81;;;0.38;100.00
64628;BME280;68467;50.960;0.314;2024-01-11T05:41:20;101487.56;;;0.52;100.00
64628;BME280;68467;50.960;0.314;2024-01-11T05:43:47;101491.08;;;0.09;100.00
64628;BME280;68467;50.960;0.314;2024-01-11T05:46:14;101495.24;;;-0.21;100.00
64628;BME280;68467;50.960;0.314;2024-01-11T05:48:42;101496.59;;;0.06;100.00
64628;BME280;68467;50.960;0.314;2024-01-11T05:51:09;101501.63;;;-0.06;100.00
64628;BME280;68467;50.960;0.314;2024-01-11T05:53:37;101501.94;;;0.07;100.00
64628;BME280;68467;50.960;0.314;2024-01-11T05:56:08;101500.42;;;-0.08;100.00
64628;BME280;68467;50.960;0.314;2024-01-11T05:58:36;101502.53;;;-0.60;100.00
64628;BME280;68467;50.960;0.314;2024-01-11T06:01:03;101500.23;;;0.19;100.00
64628;BME280;68467;50.960;0.314;2024-01-11T06:03:31;101507.24;;;-0.45;100.00
64628;BME280;68467;50.960;0.314;2024-01-11T06:05:58;101510.22;;;-0.30;100.00
64628;BME280;68467;50.960;0.314;2024-01-11T06:08:26;101512.00;;;-0.63;100.00
64628;BME280;68467;50.960;0.314;2024-01-11T06:10:53;101515.13;;;-0.28;100.00
64628;BME280;68467;50.960;0.314;2024-01-11T06:13:20;101519.67;;;-0.34;100.00
64628;BME280;68467;50.960;0.314;2024-01-11T06:15:48;101518.28;;;0.06;100.00
64628;BME280;68467;50.960;0.314;2024-01-11T06:18:15;101519.21;;;-0.57;100.00
64628;BME280;68467;50.960;0.314;2024-01-11T06:20:43;101523.79;;;-0.58;100.00
64628;BME280;68467;50.960;0.314;2024-01-11T06:23:11;101526.15;;;-0.53;100.00
64628;BME280;68467;50.960;0.314;2024-01-11T06:25:38;101527.21;;;-0.48;100.00
64628;BME280;68467;50.960;0.314;2024-01-11T06:28:06;101531.92;;;-0.46;100.00
64628;BME280;68467;50.960;0.314;2024-01-11T06:30:33;101540.14;;;-0.40;100.00
64628;BME280;68467;50.960;0.314;2024-01-11T06:33:00;101543.68;;;-0.46;100.00
64628;BME280;68467;50.960;0.314;2024-01-11T06:35:28;101547.65;;;-0.02;100.00
64628;BME280;68467;50.960;0.314;2024-01-11T06:37:55;101553.97;;;0.21;100.00
64628;BME280;68467;50.960;0.314;2024-01-11T06:40:23;101558.92;;;0.56;100.00
64628;BME280;68467;50.960;0.314;2024-01-11T06:42:50;101559.91;;;0.66;100.00
64628;BME280;68467;50.960;0.314;2024-01-11T06:45:19;101564.05;;;0.74;100.00
64628;BME280;68467;50.960;0.314;2024-01-11T06:47:47;101568.84;;;0.89;100.00
64628;BME280;68467;50.960;0.314;2024-01-11T06:50:14;101571.32;;;1.19;100.00
64628;BME280;68467;50.960;0.314;2024-01-11T06:52:42;101578.04;;;0.79;100.00
64628;BME280;68467;50.960;0.314;2024-01-11T06:55:09;101580.37;;;0.76;100.00
64628;BME280;68467;50.960;0.314;2024-01-11T06:57:37;101580.12;;;1.28;100.00
64628;BME280;68467;50.960;0.314;2024-01-11T07:00:06;101580.99;;;1.10;100.00
64628;BME280;68467;50.960;0.314;2024-01-11T07:02:34;101581.08;;;0.59;100.00
64628;BME280;68467;50.960;0.314;2024-01-11T07:05:01;101578.85;;;0.19;100.00
64628;BME280;68467;50.960;0.314;2024-01-11T07:07:29;101574.66;;;1.21;100.00
64628;BME280;68467;50.960;0.314;2024-01-11T07:09:56;101577.43;;;1.18;100.00
64628;BME280;68467;50.960;0.314;2024-01-11T07:12:23;101575.80;;;0.97;100.00
64628;BME280;68467;50.960;0.314;2024-01-11T07:14:51;101581.11;;;0.73;100.00
64628;BME280;68467;50.960;0.314;2024-01-11T07:17:18;101585.02;;;0.85;100.00
64628;BME280;68467;50.960;0.314;2024-01-11T07:19:46;101584.52;;;0.72;100.00
64628;BME280;68467;50.960;0.314;2024-01-11T07:22:14;101588.59;;;0.52;100.00
64628;BME280;68467;50.960;0.314;2024-01-11T07:24:41;101591.48;;;0.76;100.00
64628;BME280;68467;50.960;0.314;2024-01-11T07:27:08;101598.15;;;0.37;100.00
64628;BME280;68467;50.960;0.314;2024-01-11T07:29:36;101599.37;;;-0.31;100.00
64628;BME280;68467;50.960;0.314;2024-01-11T07:32:04;101600.31;;;0.12;100.00
64628;BME280;68467;50.960;0.314;2024-01-11T07:34:32;101597.72;;;0.47;100.00
64628;BME280;68467;50.960;0.314;2024-01-11T07:36:59;101603.80;;;-0.40;100.00
64628;BME280;68467;50.960;0.314;2024-01-11T07:39:27;101608.83;;;0.08;100.00
64628;BME280;68467;50.960;0.314;2024-01-11T07:41:54;101613.66;;;-0.20;100.00
64628;BME280;68467;50.960;0.314;2024-01-11T07:44:22;101615.41;;;-0.31;100.00
64628;BME280;68467;50.960;0.314;2024-01-11T07:46:50;101612.11;;;-0.37;100.00
64628;BME280;68467;50.960;0.314;2024-01-11T07:49:17;101617.46;;;-0.39;100.00
64628;BME280;68467;50.960;0.314;2024-01-11T07:51:44;101622.21;;;-0.07;100.00
64628;BME280;68467;50.960;0.314;2024-01-11T07:54:12;101624.47;;;0.16;100.00
64628;BME280;68467;50.960;0.314;2024-01-11T07:56:40;101626.37;;;0.25;100.00
64628;BME280;68467;50.960;0.314;2024-01-11T07:59:08;101623.05;;;0.11;100.00
64628;BME280;68467;50.960;0.314;2024-01-11T08:01:35;101625.35;;;0.08;100.00
64628;BME280;68467;50.960;0.314;2024-01-11T08:04:03;101627.64;;;0.08;100.00
64628;BME280;68467;50.960;0.314;2024-01-11T08:06:30;101629.47;;;-0.38;100.00
64628;BME280;68467;50.960;0.314;2024-01-11T08:08:57;101626.46;;;-0.18;100.00
64628;BME280;68467;50.960;0.314;2024-01-11T08:11:24;101624.41;;;0.36;100.00
64628;BME280;68467;50.960;0.314;2024-01-11T08:13:52;101631.45;;;0.03;100.00
64628;BME280;68467;50.960;0.314;2024-01-11T08:16:20;101631.84;;;0.25;100.00
64628;BME280;68467;50.960;0.314;2024-01-11T08:18:47;101632.24;;;0.03;100.00
64628;BME280;68467;50.960;0.314;2024-01-11T08:21:14;101636.09;;;0.09;100.00
64628;BME280;68467;50.960;0.314;2024-01-11T08:23:42;101643.13;;;0.20;100.00
64628;BME280;68467;50.960;0.314;2024-01-11T08:26:12;101642.88;;;-0.01;100.00
64628;BME280;68467;50.960;0.314;2024-01-11T08:28:39;101641.46;;;-0.15;100.00
64628;BME280;68467;50.960;0.314;2024-01-11T08:31:11;101649.10;;;-0.14;100.00
64628;BME280;68467;50.960;0.314;2024-01-11T08:33:39;101649.82;;;-0.05;100.00
64628;BME280;68467;50.960;0.314;2024-01-11T08:36:07;101653.49;;;-0.44;100.00
64628;BME280;68467;50.960;0.314;2024-01-11T08:38:35;101651.85;;;0.29;100.00
64628;BME280;68467;50.960;0.314;2024-01-11T08:41:02;101654.96;;;0.19;100.00
64628;BME280;68467;50.960;0.314;2024-01-11T08:43:30;101657.43;;;0.00;100.00
64628;BME280;68467;50.960;0.314;2024-01-11T08:45:57;101659.52;;;0.63;100.00
64628;BME280;68467;50.960;0.314;2024-01-11T08:48:26;101661.87;;;0.32;100.00
64628;BME280;68467;50.960;0.314;2024-01-11T08:50:54;101662.30;;;0.58;100.00
64628;BME280;68467;50.960;0.314;2024-01-11T08:53:21;101659.66;;;0.28;100.00
64628;BME280;68467;50.960;0.314;2024-01-11T08:55:50;101661.71;;;0.47;100.00
64628;BME280;68467;50.960;0.314;2024-01-11T08:58:18;101668.43;;;0.23;100.00
64628;BME280;68467;50.960;0.314;2024-01-11T09:00:45;101675.39;;;0.33;100.00
64628;BME280;68467;50.960;0.314;2024-01-11T09:03:12;101677.71;;;0.25;100.00
64628;BME280;68467;50.960;0.314;2024-01-11T09:05:40;101679.79;;;0.76;100.00
64628;BME280;68467;50.960;0.314;2024-01-11T09:08:08;101680.47;;;0.75;100.00
64628;BME280;68467;50.960;0.314;2024-01-11T09:10:36;101676.80;;;1.16;100.00
64628;BME280;68467;50.960;0.314;2024-01-11T09:13:04;101680.66;;;0.52;100.00
64628;BME280;68467;50.960;0.314;2024-01-11T09:15:31;101684.73;;;1.15;100.00
64628;BME280;68467;50.960;0.314;2024-01-11T09:17:59;101694.58;;;1.40;100.00
64628;BME280;68467;50.960;0.314;2024-01-11T09:20:26;101707.38;;;1.56;100.00
64628;BME280;68467;50.960;0.314;2024-01-11T09:22:54;101700.21;;;1.61;100.00
64628;BME280;68467;50.960;0.314;2024-01-11T09:25:21;101701.88;;;2.01;100.00
64628;BME280;68467;50.960;0.314;2024-01-11T09:27:49;101697.50;;;2.30;100.00
64628;BME280;68467;50.960;0.314;2024-01-11T09:30:17;101704.18;;;1.97;100.00
64628;BME280;68467;50.960;0.314;2024-01-11T09:32:45;101711.18;;;2.44;100.00
64628;BME280;68467;50.960;0.314;2024-01-11T09:35:12;101716.21;;;1.68;100.00
64628;BME280;68467;50.960;0.314;2024-01-11T09:37:40;101717.63;;;1.48;100.00
64628;BME280;68467;50.960;0.314;2024-01-11T09:40:09;101718.82;;;2.29;100.00
64628;BME280;68467;50.960;0.314;2024-01-11T09:42:37;101717.88;;;2.52;100.00
64628;BME280;68467;50.960;0.314;2024-01-11T09:45:09;101716.75;;;2.55;100.00
64628;BME280;68467;50.960;0.314;2024-01-11T09:47:36;101716.31;;;2.72;100.00
64628;BME280;68467;50.960;0.314;2024-01-11T09:50:05;101714.34;;;2.54;100.00
64628;BME280;68467;50.960;0.314;2024-01-11T09:52:32;101716.41;;;2.36;100.00
64628;BME280;68467;50.960;0.314;2024-01-11T09:55:00;101719.58;;;2.97;100.00
64628;BME280;68467;50.960;0.314;2024-01-11T09:57:30;101720.98;;;3.13;100.00
64628;BME280;68467;50.960;0.314;2024-01-11T09:59:58;101729.21;;;2.88;100.00
64628;BME280;68467;50.960;0.314;2024-01-11T10:02:26;101726.67;;;3.62;100.00
64628;BME280;68467;50.960;0.314;2024-01-11T10:04:54;101732.52;;;2.82;100.00
64628;BME280;68467;50.960;0.314;2024-01-11T10:07:23;101732.27;;;3.65;100.00
64628;BME280;68467;50.960;0.314;2024-01-11T10:09:51;101735.25;;;3.62;100.00
64628;BME280;68467;50.960;0.314;2024-01-11T10:12:21;101737.04;;;2.91;100.00
64628;BME280;68467;50.960;0.314;2024-01-11T10:14:49;101734.31;;;3.41;100.00
64628;BME280;68467;50.960;0.314;2024-01-11T10:17:16;101732.58;;;4.58;100.00
64628;BME280;68467;50.960;0.314;2024-01-11T10:19:45;101736.02;;;3.73;100.00
64628;BME280;68467;50.960;0.314;2024-01-11T10:22:12;101737.77;;;3.92;100.00
64628;BME280;68467;50.960;0.314;2024-01-11T10:24:39;101740.10;;;3.72;100.00
64628;BME280;68467;50.960;0.314;2024-01-11T10:27:09;101741.68;;;3.00;100.00
64628;BME280;68467;50.960;0.314;2024-01-11T10:29:37;101741.88;;;3.82;100.00
64628;BME280;68467;50.960;0.314;2024-01-11T10:32:05;101742.91;;;4.43;100.00
64628;BME280;68467;50.960;0.314;2024-01-11T10:34:32;101746.56;;;4.12;100.00
64628;BME280;68467;50.960;0.314;2024-01-11T10:37:00;101748.39;;;4.57;100.00
64628;BME280;68467;50.960;0.314;2024-01-11T10:39:28;101745.72;;;4.95;100.00
64628;BME280;68467;50.960;0.314;2024-01-11T10:42:06;101752.01;;;4.41;100.00
64628;BME280;68467;50.960;0.314;2024-01-11T10:44:34;101746.37;;;4.17;100.00
64628;BME280;68467;50.960;0.314;2024-01-11T10:47:03;101742.69;;;5.41;100.00
64628;BME280;68467;50.960;0.314;2024-01-11T10:49:33;101743.39;;;5.68;100.00
64628;BME280;68467;50.960;0.314;2024-01-11T10:52:03;101744.74;;;5.13;100.00
64628;BME280;68467;50.960;0.314;2024-01-11T10:54:31;101742.76;;;5.27;100.00
64628;BME280;68467;50.960;0.314;2024-01-11T10:57:01;101751.04;;;4.67;100.00
64628;BME280;68467;50.960;0.314;2024-01-11T10:59:29;101745.55;;;5.26;100.00
64628;BME280;68467;50.960;0.314;2024-01-11T11:02:03;101751.69;;;5.42;100.00
64628;BME280;68467;50.960;0.314;2024-01-11T11:04:32;101749.89;;;5.00;100.00
64628;BME280;68467;50.960;0.314;2024-01-11T11:07:00;101756.44;;;4.30;100.00
64628;BME280;68467;50.960;0.314;2024-01-11T11:09:28;101757.02;;;5.11;100.00
64628;BME280;68467;50.960;0.314;2024-01-11T11:11:58;101757.10;;;4.27;100.00
64628;BME280;68467;50.960;0.314;2024-01-11T11:14:26;101756.62;;;4.59;100.00
64628;BME280;68467;50.960;0.314;2024-01-11T11:16:55;101767.47;;;3.93;100.00
64628;BME280;68467;50.960;0.314;2024-01-11T11:19:22;101770.33;;;4.71;100.00
64628;BME280;68467;50.960;0.314;2024-01-11T11:21:50;101769.42;;;4.68;100.00
64628;BME280;68467;50.960;0.314;2024-01-11T11:24:17;101767.51;;;5.29;100.00
64628;BME280;68467;50.960;0.314;2024-01-11T11:26:44;101767.46;;;4.61;100.00
64628;BME280;68467;50.960;0.314;2024-01-11T11:29:12;101771.55;;;4.81;100.00
64628;BME280;68467;50.960;0.314;2024-01-11T11:31:42;101775.05;;;5.48;100.00
64628;BME280;68467;50.960;0.314;2024-01-11T11:34:11;101773.92;;;5.54;100.00
64628;BME280;68467;50.960;0.314;2024-01-11T11:36:40;101777.88;;;5.05;100.00
64628;BME280;68467;50.960;0.314;2024-01-11T11:39:10;101776.48;;;5.63;100.00
64628;BME280;68467;50.960;0.314;2024-01-11T11:41:37;101778.77;;;6.07;100.00
64628;BME280;68467;50.960;0.314;2024-01-11T11:44:06;101782.20;;;4.89;100.00
64628;BME280;68467;50.960;0.314;2024-01-11T11:46:33;101779.25;;;5.89;100.00
64628;BME280;68467;50.960;0.314;2024-01-11T11:49:01;101780.33;;;5.22;100.00
64628;BME280;68467;50.960;0.314;2024-01-11T11:51:28;101782.22;;;5.66;100.00
64628;BME280;68467;50.960;0.314;2024-01-11T11:53:57;101779.77;;;4.69;100.00
64628;BME280;68467;50.960;0.314;2024-01-11T11:56:25;101779.71;;;5.95;100.00
64628;BME280;68467;50.960;0.314;2024-01-11T11:58:54;101778.52;;;6.11;100.00
64628;BME280;68467;50.960;0.314;2024-01-11T12:01:21;101775.43;;;5.40;100.00
64628;BME280;68467;50.960;0.314;2024-01-11T12:03:48;101774.68;;;6.37;100.00
64628;BME280;68467;50.960;0.314;2024-01-11T12:06:17;101764.31;;;5.44;100.00
64628;BME280;68467;50.960;0.314;2024-01-11T12:08:47;101766.45;;;6.37;100.00
64628;BME280;68467;50.960;0.314;2024-01-11T12:11:17;101763.41;;;6.16;100.00
64628;BME280;68467;50.960;0.314;2024-01-11T12:13:46;101756.56;;;6.20;100.00
64628;BME280;68467;50.960;0.314;2024-01-11T12:16:14;101755.92;;;5.94;100.00
64628;BME280;68467;50.960;0.314;2024-01-11T12:18:42;101755.63;;;5.31;100.00
64628;BME280;68467;50.960;0.314;2024-01-11T12:21:09;101749.06;;;5.89;100.00
64628;BME280;68467;50.960;0.314;2024-01-11T12:23:38;101748.61;;;5.79;100.00
64628;BME280;68467;50.960;0.314;2024-01-11T12:26:07;101750.12;;;5.22;100.00
64628;BME280;68467;50.960;0.314;2024-01-11T12:28:34;101752.46;;;4.70;100.00
64628;BME280;68467;50.960;0.314;2024-01-11T12:31:03;101752.65;;;4.63;100.00
64628;BME280;68467;50.960;0.314;2024-01-11T12:33:31;101749.69;;;5.22;100.00
64628;BME280;68467;50.960;0.314;2024-01-11T12:35:59;101748.24;;;5.11;100.00
64628;BME280;68467;50.960;0.314;2024-01-11T12:38:27;101749.18;;;5.02;100.00
64628;BME280;68467;50.960;0.314;2024-01-11T12:40:54;101748.01;;;5.48;100.00
64628;BME280;68467;50.960;0.314;2024-01-11T12:43:22;101748.21;;;5.24;100.00
64628;BME280;68467;50.960;0.314;2024-01-11T12:45:50;101749.61;;;5.76;100.00
64628;BME280;68467;50.960;0.314;2024-01-11T12:48:17;101745.59;;;5.57;100.00
64628;BME280;68467;50.960;0.314;2024-01-11T12:50:44;101747.03;;;5.89;100.00